Aeroporto :
LOGIN :

Iscrizione | Disclaimer

   EN    FR    IT 

 










Sommario :    VFR   VFR Marginale   IFR   IFR Intensivo   IFR Molto Intensivo
Visibilità : 
Base nubi : 
>= 8 km
>= 3000ft
5 / 8 km
1000 / 3000 ft
1500m / 5 km
500 / 1000 ft
800 / 1500m
200 / 500 ft
< 800m
< 200 ft
Simboli :   Temporali  Nebbia  Neve Forte  Precipitazioni Forti  Vento > 20 kt
SIGMETs :   Varie  Temporali  Ghiacco  Turbolenza  Onda orograficha  Ceneri Vulcaniche






- Altitudine del aeroporto : 56 ft
- Codice IATA : BZR


LFMU - Beziers / Vias

ULTIMO METAR :
  • 230800Z AUTO VRB06KT 2200 +TSRA BR FEW009/// SCT014/// BKN020/// ///CB 16/16 Q1007 TEMPO TSRA BKN005 BKN010CB

METARs OBSOLETI :
  • 230730Z AUTO VRB09KT 2200 1000 R09/1400D +TSRA BR SCT006/// BKN014/// BKN022/// ///CB 16/15 Q1008 TEMPO TSRA BKN005 BKN010CB
  • 230700Z AUTO 02013KT 5000 +RA BR FEW014/// SCT025/// BKN030/// ///CB 16/15 Q1007 TEMPO 1500 TSRA BKN005 BKN010CB
  • 230630Z AUTO 01012KT 5000 TSRA BR FEW010/// SCT023/// BKN030/// ///CB 16/15 Q1008 TEMPO 1500 TSRA BKN005 BKN010CB
  • 230600Z AUTO 01015KT 2700 +TSRA BR SCT010/// BKN019/// BKN028/// ///CB 15/15 Q1008 TEMPO VRB10G35KT TSRAGR BKN005 BKN010CB
  • 230530Z AUTO 32010KT 280V350 4000 +TSRA BR FEW008/// SCT013/// BKN024/// ///CB 16/15 Q1008 TEMPO 1500 TSRA BKN005 BKN010CB

TAF TAF LFMU
Valido dal 23 a 03 ore il 24 a 03 ore UTC


230200Z 2303/2403 05015G25KT 6000 BKN005 SCT050CB
TEMPO 2303/2312 VRB10G35KT 1500 TSRA BKN005 BKN010CB
PROB30
TEMPO 2303/2309 TSRAGR
BECMG 2312/2314 15015KT SCT005 BKN030
BECMG 2318/2321 NSW NSC
ATIS : +33 4 67 90 88 88



MetMap, La meteo Aeronautica in un colpo d'occhio ! - Copyright ORBIFLY Dicembre 2007 - Disclaimer

ORBIFLY MET'MAP TEAM :

Programmazione e sviluppo : Alexandra Zaïnal
Concezione e sviluppo : Baudouin d'Aumeries
Co-Programmazione e sviluppo : Marc-Olivier Méhu
Supporto tecnico e logistico : Manuel Goepfert
Aiuto per la traduzione : Arnaldo La Scala

Contatto : metmap@orbifly.com




FONTI E CREDITI :

   NOAA